Wilson Maas — 8PSZ — position and weather

sailwx.info

Track history (hours):
 
Tides and Currents Weather Stations Pressure Air Temp Water Temp Dewpoint Dewpoint Depression Visibility Wind Speed Wind Dir Waves Ship Positions

Wilson Maas

Last reported at 2014-Sep-16 00:20 UTC. Time now 2014-Sep-16 00:59 UTC.
Position N 51°14' E 002°56'.

Length 78 m; draft 3.8 m.

Type: Cargo ship. MMSI: 314217000.

Date/timePositionNaut miles runAvg speedWind from/ knotsBaromVisibWave heightAir tempDewpointWater temp
2014-Sep-16 00:20N 51°14' E 002°56'0 0.0
2014-Sep-15 23:29N 51°14' E 002°56'0 0.0
2014-Sep-15 22:32N 51°14' E 002°56'0 0.0
2014-Sep-15 21:23N 51°14' E 002°56'0 0.0
2014-Sep-15 20:26N 51°14' E 002°56'0 0.0
2014-Sep-15 19:29N 51°14' E 002°56'0 0.0
2014-Sep-15 18:23N 51°14' E 002°56'0 0.0
2014-Sep-15 17:26N 51°14' E 002°56'0 0.0
2014-Sep-15 16:32N 51°14' E 002°56'8 7.4
2014-Sep-15 15:25N 51°20' E 002°49'7 8.3
2014-Sep-15 14:31N 51°27' E 002°42'1010.6
2014-Sep-15 13:34N 51°37' E 002°42'162 9.4
2014-Sep-14 20:19N 53°59' E 004°51'241 9.7
2014-Sep-13 19:28N 58°00' E 005°08'  
2014-Sep-10 22:33N 66°16' E 012°19'9 8.5
2014-Sep-10 21:33N 66°14' E 012°39'  
Track history (hours):
 
Tides and Currents Weather Stations Pressure Air Temp Water Temp Dewpoint Dewpoint Depression Visibility Wind Speed Wind Dir Waves Ship Positions

Wilson Maas

Last reported at 2014-Sep-16 00:20 UTC. Time now 2014-Sep-16 00:59 UTC.
Position N 51°14' E 002°56'.

Length 78 m; draft 3.8 m.

Type: Cargo ship. MMSI: 314217000.

Date/timePositionNaut miles runAvg speedWind from/ knotsBaromVisibWave heightAir tempDewpointWater temp
2014-Sep-16 00:20N 51°14' E 002°56'0 0.0
2014-Sep-15 23:29N 51°14' E 002°56'0 0.0
2014-Sep-15 22:32N 51°14' E 002°56'0 0.0
2014-Sep-15 21:23N 51°14' E 002°56'0 0.0
2014-Sep-15 20:26N 51°14' E 002°56'0 0.0
2014-Sep-15 19:29N 51°14' E 002°56'0 0.0
2014-Sep-15 18:23N 51°14' E 002°56'0 0.0
2014-Sep-15 17:26N 51°14' E 002°56'0 0.0
2014-Sep-15 16:32N 51°14' E 002°56'8 7.4
2014-Sep-15 15:25N 51°20' E 002°49'7 8.3
2014-Sep-15 14:31N 51°27' E 002°42'1010.6
2014-Sep-15 13:34N 51°37' E 002°42'162 9.4
2014-Sep-14 20:19N 53°59' E 004°51'241 9.7
2014-Sep-13 19:28N 58°00' E 005°08'  
2014-Sep-10 22:33N 66°16' E 012°19'9 8.5
2014-Sep-10 21:33N 66°14' E 012°39'  

Dump ship's entire track history